sensor_id;sensor_type;location;lat;lon;timestamp;temperature;humidity
10296;DHT22;5193;51.032;6.356;2023-02-03T00:01:17;8.50;99.90
10296;DHT22;5193;51.032;6.356;2023-02-03T00:03:43;8.50;99.90
10296;DHT22;5193;51.032;6.356;2023-02-03T00:06:08;8.50;99.90
10296;DHT22;5193;51.032;6.356;2023-02-03T00:08:35;8.50;99.90
10296;DHT22;5193;51.032;6.356;2023-02-03T00:11:02;8.50;99.90
10296;DHT22;5193;51.032;6.356;2023-02-03T00:13:27;8.50;99.90
10296;DHT22;5193;51.032;6.356;2023-02-03T00:15:53;8.40;99.90
10296;DHT22;5193;51.032;6.356;2023-02-03T00:18:19;8.50;99.90
10296;DHT22;5193;51.032;6.356;2023-02-03T00:20:44;8.50;99.90
10296;DHT22;5193;51.032;6.356;2023-02-03T00:23:10;8.50;99.90
10296;DHT22;5193;51.032;6.356;2023-02-03T00:25:37;8.50;99.90
10296;DHT22;5193;51.032;6.356;2023-02-03T00:28:02;8.50;99.90
10296;DHT22;5193;51.032;6.356;2023-02-03T00:30:28;8.50;99.90
10296;DHT22;5193;51.032;6.356;2023-02-03T00:32:55;8.50;99.90
10296;DHT22;5193;51.032;6.356;2023-02-03T00:35:21;8.50;99.90
10296;DHT22;5193;51.032;6.356;2023-02-03T00:37:54;8.50;99.90
10296;DHT22;5193;51.032;6.356;2023-02-03T00:40:22;8.40;99.90
10296;DHT22;5193;51.032;6.356;2023-02-03T00:42:48;8.50;99.90
10296;DHT22;5193;51.032;6.356;2023-02-03T00:45:13;8.50;99.90
10296;DHT22;5193;51.032;6.356;2023-02-03T00:47:40;8.50;99.90
10296;DHT22;5193;51.032;6.356;2023-02-03T00:50:06;8.50;99.90
10296;DHT22;5193;51.032;6.356;2023-02-03T00:52:32;8.50;99.90
10296;DHT22;5193;51.032;6.356;2023-02-03T00:54:57;8.50;99.90
10296;DHT22;5193;51.032;6.356;2023-02-03T00:57:23;8.50;99.90
10296;DHT22;5193;51.032;6.356;2023-02-03T00:59:49;8.50;99.90
10296;DHT22;5193;51.032;6.356;2023-02-03T01:02:15;8.50;99.90
10296;DHT22;5193;51.032;6.356;2023-02-03T01:04:42;8.50;99.90
10296;DHT22;5193;51.032;6.356;2023-02-03T01:07:08;8.50;99.90
10296;DHT22;5193;51.032;6.356;2023-02-03T01:09:35;8.60;99.90
10296;DHT22;5193;51.032;6.356;2023-02-03T01:12:01;8.50;99.90
10296;DHT22;5193;51.032;6.356;2023-02-03T01:14:27;8.60;99.90
10296;DHT22;5193;51.032;6.356;2023-02-03T01:16:53;8.60;99.90
10296;DHT22;5193;51.032;6.356;2023-02-03T01:19:18;8.50;99.90
10296;DHT22;5193;51.032;6.356;2023-02-03T01:21:44;8.60;99.90
10296;DHT22;5193;51.032;6.356;2023-02-03T01:24:09;8.50;99.90
10296;DHT22;5193;51.032;6.356;2023-02-03T01:26:35;8.60;99.90
10296;DHT22;5193;51.032;6.356;2023-02-03T01:29:01;8.60;99.90
10296;DHT22;5193;51.032;6.356;2023-02-03T01:31:32;8.60;99.90
10296;DHT22;5193;51.032;6.356;2023-02-03T01:34:00;8.60;99.90
10296;DHT22;5193;51.032;6.356;2023-02-03T01:36:28;8.60;99.90
10296;DHT22;5193;51.032;6.356;2023-02-03T01:38:54;8.50;99.90
10296;DHT22;5193;51.032;6.356;2023-02-03T01:41:25;8.60;99.90
10296;DHT22;5193;51.032;6.356;2023-02-03T01:43:53;8.60;99.90
10296;DHT22;5193;51.032;6.356;2023-02-03T01:46:37;8.60;99.90
10296;DHT22;5193;51.032;6.356;2023-02-03T01:51:33;8.60;99.90
10296;DHT22;5193;51.032;6.356;2023-02-03T01:54:00;8.60;99.90
10296;DHT22;5193;51.032;6.356;2023-02-03T01:56:29;8.60;99.90
10296;DHT22;5193;51.032;6.356;2023-02-03T01:58:56;8.60;99.90
10296;DHT22;5193;51.032;6.356;2023-02-03T02:01:24;8.60;99.90
10296;DHT22;5193;51.032;6.356;2023-02-03T02:03:54;8.60;99.90
10296;DHT22;5193;51.032;6.356;2023-02-03T02:06:20;8.60;99.90
10296;DHT22;5193;51.032;6.356;2023-02-03T02:08:47;8.60;99.90
10296;DHT22;5193;51.032;6.356;2023-02-03T02:11:14;8.60;99.90
10296;DHT22;5193;51.032;6.356;2023-02-03T02:13:42;8.60;99.90
10296;DHT22;5193;51.032;6.356;2023-02-03T02:42:48;8.50;99.90
10296;DHT22;5193;51.032;6.356;2023-02-03T02:45:24;8.60;99.90
10296;DHT22;5193;51.032;6.356;2023-02-03T02:48:00;8.50;99.90
10296;DHT22;5193;51.032;6.356;2023-02-03T02:50:33;8.50;99.90
10296;DHT22;5193;51.032;6.356;2023-02-03T02:52:59;8.50;99.90
10296;DHT22;5193;51.032;6.356;2023-02-03T02:55:31;8.50;99.90
10296;DHT22;5193;51.032;6.356;2023-02-03T02:58:02;8.50;99.90
10296;DHT22;5193;51.032;6.356;2023-02-03T03:00:30;8.60;99.90
10296;DHT22;5193;51.032;6.356;2023-02-03T03:02:56;8.50;99.90
10296;DHT22;5193;51.032;6.356;2023-02-03T03:05:23;8.50;99.90
10296;DHT22;5193;51.032;6.356;2023-02-03T03:07:56;8.50;99.90
10296;DHT22;5193;51.032;6.356;2023-02-03T03:10:24;8.50;99.90
10296;DHT22;5193;51.032;6.356;2023-02-03T03:13:00;8.60;99.90
10296;DHT22;5193;51.032;6.356;2023-02-03T03:15:29;8.50;99.90
10296;DHT22;5193;51.032;6.356;2023-02-03T03:18:05;8.50;99.90
10296;DHT22;5193;51.032;6.356;2023-02-03T03:20:34;8.60;99.90
10296;DHT22;5193;51.032;6.356;2023-02-03T03:23:13;8.60;99.90
10296;DHT22;5193;51.032;6.356;2023-02-03T03:25:46;8.50;99.90
10296;DHT22;5193;51.032;6.356;2023-02-03T03:28:21;8.60;99.90
10296;DHT22;5193;51.032;6.356;2023-02-03T03:30:51;8.60;99.90
10296;DHT22;5193;51.032;6.356;2023-02-03T03:33:17;8.50;99.90
10296;DHT22;5193;51.032;6.356;2023-02-03T03:41:49;8.50;99.90
10296;DHT22;5193;51.032;6.356;2023-02-03T03:44:21;8.50;99.90
10296;DHT22;5193;51.032;6.356;2023-02-03T03:47:02;8.50;99.90
10296;DHT22;5193;51.032;6.356;2023-02-03T03:49:32;8.50;99.90
10296;DHT22;5193;51.032;6.356;2023-02-03T03:52:02;8.50;99.90
10296;DHT22;5193;51.032;6.356;2023-02-03T03:54:29;8.50;99.90
10296;DHT22;5193;51.032;6.356;2023-02-03T03:57:04;8.60;99.90
10296;DHT22;5193;51.032;6.356;2023-02-03T03:59:34;8.50;99.90
10296;DHT22;5193;51.032;6.356;2023-02-03T04:02:03;8.50;99.90
10296;DHT22;5193;51.032;6.356;2023-02-03T04:04:30;8.50;99.90
10296;DHT22;5193;51.032;6.356;2023-02-03T04:06:57;8.50;99.90
10296;DHT22;5193;51.032;6.356;2023-02-03T04:09:22;8.50;99.90
10296;DHT22;5193;51.032;6.356;2023-02-03T04:11:48;8.50;99.90
10296;DHT22;5193;51.032;6.356;2023-02-03T04:14:31;8.50;99.90
10296;DHT22;5193;51.032;6.356;2023-02-03T04:16:58;8.50;99.90
10296;DHT22;5193;51.032;6.356;2023-02-03T04:19:24;8.50;99.90
10296;DHT22;5193;51.032;6.356;2023-02-03T04:21:49;8.60;99.90
10296;DHT22;5193;51.032;6.356;2023-02-03T04:24:15;8.50;99.90
10296;DHT22;5193;51.032;6.356;2023-02-03T04:26:41;8.60;99.90
10296;DHT22;5193;51.032;6.356;2023-02-03T04:29:06;8.50;99.90
10296;DHT22;5193;51.032;6.356;2023-02-03T04:31:32;8.60;99.90
10296;DHT22;5193;51.032;6.356;2023-02-03T04:33:57;8.50;99.90
10296;DHT22;5193;51.032;6.356;2023-02-03T04:36:23;8.50;99.90
10296;DHT22;5193;51.032;6.356;2023-02-03T04:38:49;8.50;99.90
10296;DHT22;5193;51.032;6.356;2023-02-03T04:41:15;8.50;99.90
10296;DHT22;5193;51.032;6.356;2023-02-03T04:43:40;8.50;99.90
10296;DHT22;5193;51.032;6.356;2023-02-03T04:46:06;8.50;99.90
10296;DHT22;5193;51.032;6.356;2023-02-03T04:48:32;8.50;99.90
10296;DHT22;5193;51.032;6.356;2023-02-03T04:51:01;8.50;99.90
10296;DHT22;5193;51.032;6.356;2023-02-03T04:53:28;8.50;99.90
10296;DHT22;5193;51.032;6.356;2023-02-03T04:55:53;8.50;99.90
10296;DHT22;5193;51.032;6.356;2023-02-03T04:58:19;8.50;99.90
10296;DHT22;5193;51.032;6.356;2023-02-03T05:00:44;8.50;99.90
10296;DHT22;5193;51.032;6.356;2023-02-03T05:03:10;8.50;99.90
10296;DHT22;5193;51.032;6.356;2023-02-03T05:05:35;8.50;99.90
10296;DHT22;5193;51.032;6.356;2023-02-03T05:08:01;8.50;99.90
10296;DHT22;5193;51.032;6.356;2023-02-03T05:10:27;8.50;99.90
10296;DHT22;5193;51.032;6.356;2023-02-03T05:12:52;8.50;99.90
10296;DHT22;5193;51.032;6.356;2023-02-03T05:15:18;8.50;99.90
10296;DHT22;5193;51.032;6.356;2023-02-03T05:17:43;8.50;99.90
10296;DHT22;5193;51.032;6.356;2023-02-03T05:20:09;8.50;99.90
10296;DHT22;5193;51.032;6.356;2023-02-03T05:22:35;8.50;99.90
10296;DHT22;5193;51.032;6.356;2023-02-03T05:25:02;8.50;99.90
10296;DHT22;5193;51.032;6.356;2023-02-03T05:27:27;8.50;99.90
10296;DHT22;5193;51.032;6.356;2023-02-03T05:29:53;8.50;99.90
10296;DHT22;5193;51.032;6.356;2023-02-03T05:32:19;8.50;99.90
10296;DHT22;5193;51.032;6.356;2023-02-03T05:34:45;8.40;99.90
10296;DHT22;5193;51.032;6.356;2023-02-03T05:37:10;8.50;99.90
10296;DHT22;5193;51.032;6.356;2023-02-03T05:39:36;8.50;99.90
10296;DHT22;5193;51.032;6.356;2023-02-03T05:42:02;8.50;99.90
10296;DHT22;5193;51.032;6.356;2023-02-03T05:44:29;8.40;99.90
10296;DHT22;5193;51.032;6.356;2023-02-03T05:46:56;8.50;99.90
10296;DHT22;5193;51.032;6.356;2023-02-03T05:49:23;8.50;99.90
10296;DHT22;5193;51.032;6.356;2023-02-03T05:51:50;8.50;99.90
10296;DHT22;5193;51.032;6.356;2023-02-03T05:54:15;8.50;99.90
10296;DHT22;5193;51.032;6.356;2023-02-03T05:56:41;8.50;99.90
10296;DHT22;5193;51.032;6.356;2023-02-03T05:59:07;8.50;99.90
10296;DHT22;5193;51.032;6.356;2023-02-03T06:01:33;8.50;99.90
10296;DHT22;5193;51.032;6.356;2023-02-03T06:04:00;8.50;99.90
10296;DHT22;5193;51.032;6.356;2023-02-03T06:06:26;8.50;99.90
10296;DHT22;5193;51.032;6.356;2023-02-03T06:09:02;8.60;99.90
10296;DHT22;5193;51.032;6.356;2023-02-03T06:11:28;8.50;99.90
10296;DHT22;5193;51.032;6.356;2023-02-03T06:13:54;8.50;99.90
10296;DHT22;5193;51.032;6.356;2023-02-03T06:16:21;8.50;99.90
10296;DHT22;5193;51.032;6.356;2023-02-03T06:18:50;8.50;99.90
10296;DHT22;5193;51.032;6.356;2023-02-03T06:21:16;8.50;99.90
10296;DHT22;5193;51.032;6.356;2023-02-03T06:23:41;8.60;99.90
10296;DHT22;5193;51.032;6.356;2023-02-03T06:26:07;8.50;99.90
10296;DHT22;5193;51.032;6.356;2023-02-03T06:28:32;8.60;99.90
10296;DHT22;5193;51.032;6.356;2023-02-03T06:30:58;8.60;99.90
10296;DHT22;5193;51.032;6.356;2023-02-03T06:33:24;8.60;99.90
10296;DHT22;5193;51.032;6.356;2023-02-03T06:35:49;8.60;99.90
10296;DHT22;5193;51.032;6.356;2023-02-03T06:38:15;8.60;99.90
10296;DHT22;5193;51.032;6.356;2023-02-03T06:40:40;8.50;99.90
10296;DHT22;5193;51.032;6.356;2023-02-03T06:43:06;8.60;99.90
10296;DHT22;5193;51.032;6.356;2023-02-03T06:45:32;8.60;99.90
10296;DHT22;5193;51.032;6.356;2023-02-03T06:47:58;8.60;99.90
10296;DHT22;5193;51.032;6.356;2023-02-03T06:50:24;8.60;99.90
10296;DHT22;5193;51.032;6.356;2023-02-03T06:52:50;8.60;99.90
10296;DHT22;5193;51.032;6.356;2023-02-03T06:55:15;8.60;99.90
10296;DHT22;5193;51.032;6.356;2023-02-03T06:57:45;8.60;99.90
10296;DHT22;5193;51.032;6.356;2023-02-03T07:00:12;8.60;99.90
10296;DHT22;5193;51.032;6.356;2023-02-03T07:02:38;8.60;99.90
10296;DHT22;5193;51.032;6.356;2023-02-03T07:05:04;8.60;99.90
10296;DHT22;5193;51.032;6.356;2023-02-03T07:07:30;8.60;99.90
10296;DHT22;5193;51.032;6.356;2023-02-03T07:09:57;8.60;99.90
10296;DHT22;5193;51.032;6.356;2023-02-03T07:12:22;8.60;99.90
10296;DHT22;5193;51.032;6.356;2023-02-03T07:14:48;8.60;99.90
10296;DHT22;5193;51.032;6.356;2023-02-03T07:17:14;8.60;99.90
10296;DHT22;5193;51.032;6.356;2023-02-03T07:19:39;8.60;99.90
10296;DHT22;5193;51.032;6.356;2023-02-03T07:22:05;8.60;99.90
10296;DHT22;5193;51.032;6.356;2023-02-03T07:24:30;8.60;99.90
10296;DHT22;5193;51.032;6.356;2023-02-03T07:26:56;8.60;99.90
10296;DHT22;5193;51.032;6.356;2023-02-03T07:29:21;8.60;99.90
10296;DHT22;5193;51.032;6.356;2023-02-03T07:31:47;8.70;99.90
10296;DHT22;5193;51.032;6.356;2023-02-03T07:34:12;8.70;99.90
10296;DHT22;5193;51.032;6.356;2023-02-03T07:36:38;8.70;99.90
10296;DHT22;5193;51.032;6.356;2023-02-03T07:39:04;8.70;99.90
10296;DHT22;5193;51.032;6.356;2023-02-03T07:41:29;8.70;99.90
10296;DHT22;5193;51.032;6.356;2023-02-03T07:43:55;8.70;99.90
10296;DHT22;5193;51.032;6.356;2023-02-03T07:46:20;9.00;99.90
10296;DHT22;5193;51.032;6.356;2023-02-03T07:48:46;8.70;99.90
10296;DHT22;5193;51.032;6.356;2023-02-03T07:51:11;8.70;99.90
10296;DHT22;5193;51.032;6.356;2023-02-03T07:53:37;8.70;99.90
10296;DHT22;5193;51.032;6.356;2023-02-03T07:56:04;8.70;99.90
10296;DHT22;5193;51.032;6.356;2023-02-03T07:58:30;8.70;99.90
10296;DHT22;5193;51.032;6.356;2023-02-03T08:00:56;8.80;99.90
10296;DHT22;5193;51.032;6.356;2023-02-03T08:03:22;8.80;99.90
10296;DHT22;5193;51.032;6.356;2023-02-03T08:05:47;8.80;99.90
10296;DHT22;5193;51.032;6.356;2023-02-03T08:08:13;8.80;99.90
10296;DHT22;5193;51.032;6.356;2023-02-03T08:10:39;8.80;99.90
10296;DHT22;5193;51.032;6.356;2023-02-03T08:13:04;8.80;99.90
10296;DHT22;5193;51.032;6.356;2023-02-03T08:15:30;8.80;99.90
10296;DHT22;5193;51.032;6.356;2023-02-03T08:17:55;8.80;99.90
10296;DHT22;5193;51.032;6.356;2023-02-03T08:20:21;8.80;99.90
10296;DHT22;5193;51.032;6.356;2023-02-03T08:22:47;8.80;99.90
10296;DHT22;5193;51.032;6.356;2023-02-03T08:25:13;8.80;99.90
10296;DHT22;5193;51.032;6.356;2023-02-03T08:27:39;8.80;99.90
10296;DHT22;5193;51.032;6.356;2023-02-03T08:30:06;8.80;99.90
10296;DHT22;5193;51.032;6.356;2023-02-03T08:32:33;8.80;99.90
10296;DHT22;5193;51.032;6.356;2023-02-03T08:34:59;8.80;99.90
10296;DHT22;5193;51.032;6.356;2023-02-03T08:37:24;8.80;99.90
10296;DHT22;5193;51.032;6.356;2023-02-03T08:39:50;8.90;99.90
10296;DHT22;5193;51.032;6.356;2023-02-03T08:42:17;8.90;99.90
10296;DHT22;5193;51.032;6.356;2023-02-03T08:44:43;8.90;99.90
10296;DHT22;5193;51.032;6.356;2023-02-03T08:47:09;8.90;99.90
10296;DHT22;5193;51.032;6.356;2023-02-03T08:49:35;8.90;99.90
10296;DHT22;5193;51.032;6.356;2023-02-03T08:52:04;8.90;99.90
10296;DHT22;5193;51.032;6.356;2023-02-03T08:54:30;8.90;99.90
10296;DHT22;5193;51.032;6.356;2023-02-03T08:56:56;8.90;99.90
10296;DHT22;5193;51.032;6.356;2023-02-03T08:59:22;8.90;99.90
10296;DHT22;5193;51.032;6.356;2023-02-03T09:01:48;8.90;99.90
10296;DHT22;5193;51.032;6.356;2023-02-03T09:04:16;8.90;99.90
10296;DHT22;5193;51.032;6.356;2023-02-03T09:06:49;8.90;99.90
10296;DHT22;5193;51.032;6.356;2023-02-03T09:09:16;8.90;99.90
10296;DHT22;5193;51.032;6.356;2023-02-03T09:11:42;8.90;99.90
10296;DHT22;5193;51.032;6.356;2023-02-03T09:14:08;8.90;99.90
10296;DHT22;5193;51.032;6.356;2023-02-03T09:16:34;8.90;99.90
10296;DHT22;5193;51.032;6.356;2023-02-03T09:18:59;8.90;99.90
10296;DHT22;5193;51.032;6.356;2023-02-03T09:21:25;8.90;99.90
10296;DHT22;5193;51.032;6.356;2023-02-03T09:23:51;8.90;99.90
10296;DHT22;5193;51.032;6.356;2023-02-03T09:26:16;8.90;99.90
10296;DHT22;5193;51.032;6.356;2023-02-03T09:28:42;8.90;99.90
10296;DHT22;5193;51.032;6.356;2023-02-03T09:31:10;8.90;99.90
10296;DHT22;5193;51.032;6.356;2023-02-03T09:33:36;8.90;99.90
10296;DHT22;5193;51.032;6.356;2023-02-03T09:36:02;8.90;99.90
10296;DHT22;5193;51.032;6.356;2023-02-03T09:38:28;8.90;99.90
10296;DHT22;5193;51.032;6.356;2023-02-03T09:40:59;8.90;99.90
10296;DHT22;5193;51.032;6.356;2023-02-03T09:46:05;8.90;99.90
10296;DHT22;5193;51.032;6.356;2023-02-03T09:48:40;8.90;99.90
10296;DHT22;5193;51.032;6.356;2023-02-03T09:51:17;8.90;99.90
10296;DHT22;5193;51.032;6.356;2023-02-03T09:53:49;8.90;99.90
10296;DHT22;5193;51.032;6.356;2023-02-03T09:56:31;8.80;99.90
10296;DHT22;5193;51.032;6.356;2023-02-03T09:58:58;8.80;99.90
10296;DHT22;5193;51.032;6.356;2023-02-03T10:02:12;8.80;99.90
10296;DHT22;5193;51.032;6.356;2023-02-03T10:06:52;8.80;99.90
10296;DHT22;5193;51.032;6.356;2023-02-03T10:12:37;8.70;99.90
10296;DHT22;5193;51.032;6.356;2023-02-03T10:17:52;8.70;99.90
10296;DHT22;5193;51.032;6.356;2023-02-03T10:20:23;8.70;99.90
10296;DHT22;5193;51.032;6.356;2023-02-03T10:22:52;8.70;99.90
10296;DHT22;5193;51.032;6.356;2023-02-03T10:27:55;8.60;99.90
10296;DHT22;5193;51.032;6.356;2023-02-03T10:30:23;8.60;99.90
10296;DHT22;5193;51.032;6.356;2023-02-03T10:32:54;8.60;99.90
10296;DHT22;5193;51.032;6.356;2023-02-03T10:35:27;8.60;99.90
10296;DHT22;5193;51.032;6.356;2023-02-03T10:37:57;8.50;99.90
10296;DHT22;5193;51.032;6.356;2023-02-03T10:40:25;8.60;99.90
10296;DHT22;5193;51.032;6.356;2023-02-03T10:42:51;8.50;99.90
10296;DHT22;5193;51.032;6.356;2023-02-03T10:45:37;8.60;99.90
10296;DHT22;5193;51.032;6.356;2023-02-03T10:48:04;8.50;99.90
10296;DHT22;5193;51.032;6.356;2023-02-03T10:50:31;8.50;99.90
10296;DHT22;5193;51.032;6.356;2023-02-03T10:53:26;8.50;99.90
10296;DHT22;5193;51.032;6.356;2023-02-03T10:56:11;8.50;99.90
10296;DHT22;5193;51.032;6.356;2023-02-03T10:58:44;8.50;99.90
10296;DHT22;5193;51.032;6.356;2023-02-03T11:01:13;8.50;99.90
10296;DHT22;5193;51.032;6.356;2023-02-03T11:03:44;8.50;99.90
10296;DHT22;5193;51.032;6.356;2023-02-03T11:06:18;8.50;99.90
10296;DHT22;5193;51.032;6.356;2023-02-03T11:08:45;8.60;99.90
10296;DHT22;5193;51.032;6.356;2023-02-03T11:11:23;8.60;99.90
10296;DHT22;5193;51.032;6.356;2023-02-03T11:14:10;8.60;99.90
10296;DHT22;5193;51.032;6.356;2023-02-03T11:16:38;8.60;99.90
10296;DHT22;5193;51.032;6.356;2023-02-03T11:19:14;8.60;99.90
10296;DHT22;5193;51.032;6.356;2023-02-03T11:21:45;8.70;99.90
10296;DHT22;5193;51.032;6.356;2023-02-03T11:26:57;8.70;99.90
10296;DHT22;5193;51.032;6.356;2023-02-03T11:29:29;8.70;99.90
10296;DHT22;5193;51.032;6.356;2023-02-03T11:31:56;8.70;99.90
10296;DHT22;5193;51.032;6.356;2023-02-03T11:34:32;8.80;99.90
10296;DHT22;5193;51.032;6.356;2023-02-03T11:37:36;8.80;99.90
10296;DHT22;5193;51.032;6.356;2023-02-03T11:42:43;8.80;99.90
10296;DHT22;5193;51.032;6.356;2023-02-03T11:48:21;8.80;99.90
10296;DHT22;5193;51.032;6.356;2023-02-03T11:53:40;8.90;99.90
10296;DHT22;5193;51.032;6.356;2023-02-03T12:05:11;8.90;99.90
10296;DHT22;5193;51.032;6.356;2023-02-03T12:12:59;9.00;99.90
10296;DHT22;5193;51.032;6.356;2023-02-03T12:15:37;9.00;99.90
10296;DHT22;5193;51.032;6.356;2023-02-03T12:18:39;9.00;99.90
10296;DHT22;5193;51.032;6.356;2023-02-03T12:27:12;9.00;99.90
10296;DHT22;5193;51.032;6.356;2023-02-03T12:29:40;9.10;99.90
10296;DHT22;5193;51.032;6.356;2023-02-03T12:35:09;9.10;99.90
10296;DHT22;5193;51.032;6.356;2023-02-03T12:37:59;9.10;99.90
10296;DHT22;5193;51.032;6.356;2023-02-03T12:40:59;9.20;99.90
10296;DHT22;5193;51.032;6.356;2023-02-03T12:43:37;9.10;99.90
10296;DHT22;5193;51.032;6.356;2023-02-03T12:46:13;9.20;99.90
10296;DHT22;5193;51.032;6.356;2023-02-03T12:48:52;9.20;99.90
10296;DHT22;5193;51.032;6.356;2023-02-03T12:51:52;9.20;99.90
10296;DHT22;5193;51.032;6.356;2023-02-03T12:57:31;9.30;99.90
10296;DHT22;5193;51.032;6.356;2023-02-03T13:00:26;9.40;99.90
10296;DHT22;5193;51.032;6.356;2023-02-03T13:05:49;9.50;99.90
10296;DHT22;5193;51.032;6.356;2023-02-03T13:08:35;9.50;99.90
10296;DHT22;5193;51.032;6.356;2023-02-03T13:13:44;9.50;99.90
10296;DHT22;5193;51.032;6.356;2023-02-03T13:16:12;9.60;99.90
10296;DHT22;5193;51.032;6.356;2023-02-03T13:18:46;9.60;99.90
10296;DHT22;5193;51.032;6.356;2023-02-03T13:21:14;9.60;99.90
10296;DHT22;5193;51.032;6.356;2023-02-03T13:23:43;9.60;99.90
10296;DHT22;5193;51.032;6.356;2023-02-03T13:26:23;9.60;99.90
10296;DHT22;5193;51.032;6.356;2023-02-03T13:29:16;9.60;99.90
10296;DHT22;5193;51.032;6.356;2023-02-03T13:41:06;9.70;99.90
10296;DHT22;5193;51.032;6.356;2023-02-03T13:43:15;9.70;99.90
10296;DHT22;5193;51.032;6.356;2023-02-03T13:45:45;9.70;99.90
10296;DHT22;5193;51.032;6.356;2023-02-03T13:50:42;9.70;99.90
10296;DHT22;5193;51.032;6.356;2023-02-03T13:53:18;9.70;99.90
10296;DHT22;5193;51.032;6.356;2023-02-03T13:55:59;9.70;99.90
10296;DHT22;5193;51.032;6.356;2023-02-03T13:58:31;9.70;99.90
10296;DHT22;5193;51.032;6.356;2023-02-03T14:01:31;9.70;99.90
10296;DHT22;5193;51.032;6.356;2023-02-03T14:04:01;9.60;99.90
10296;DHT22;5193;51.032;6.356;2023-02-03T14:11:44;9.70;99.90
10296;DHT22;5193;51.032;6.356;2023-02-03T14:16:43;9.60;99.90
10296;DHT22;5193;51.032;6.356;2023-02-03T14:19:25;9.70;99.90
10296;DHT22;5193;51.032;6.356;2023-02-03T14:24:39;9.80;99.90
10296;DHT22;5193;51.032;6.356;2023-02-03T14:27:18;9.80;99.90
10296;DHT22;5193;51.032;6.356;2023-02-03T14:29:44;9.80;99.90
10296;DHT22;5193;51.032;6.356;2023-02-03T14:32:11;9.80;99.90
10296;DHT22;5193;51.032;6.356;2023-02-03T14:34:40;9.90;99.90
10296;DHT22;5193;51.032;6.356;2023-02-03T14:37:10;9.90;99.90
10296;DHT22;5193;51.032;6.356;2023-02-03T14:40:26;9.90;99.90
10296;DHT22;5193;51.032;6.356;2023-02-03T14:45:41;10.00;99.90
10296;DHT22;5193;51.032;6.356;2023-02-03T14:48:34;10.00;99.90
10296;DHT22;5193;51.032;6.356;2023-02-03T14:51:22;10.10;99.90
10296;DHT22;5193;51.032;6.356;2023-02-03T15:02:28;10.20;99.90
10296;DHT22;5193;51.032;6.356;2023-02-03T15:07:46;10.30;99.90
10296;DHT22;5193;51.032;6.356;2023-02-03T15:10:45;10.30;99.90
10296;DHT22;5193;51.032;6.356;2023-02-03T15:15:50;10.30;99.90
10296;DHT22;5193;51.032;6.356;2023-02-03T15:18:35;10.30;99.90
10296;DHT22;5193;51.032;6.356;2023-02-03T15:21:03;10.30;99.90
10296;DHT22;5193;51.032;6.356;2023-02-03T15:23:37;10.20;99.90
10296;DHT22;5193;51.032;6.356;2023-02-03T15:26:13;10.20;99.90
10296;DHT22;5193;51.032;6.356;2023-02-03T15:28:38;10.20;99.90
10296;DHT22;5193;51.032;6.356;2023-02-03T15:33:42;10.10;99.90
10296;DHT22;5193;51.032;6.356;2023-02-03T15:36:21;10.20;99.90
10296;DHT22;5193;51.032;6.356;2023-02-03T15:38:55;10.10;99.90
10296;DHT22;5193;51.032;6.356;2023-02-03T15:41:23;10.10;99.90
10296;DHT22;5193;51.032;6.356;2023-02-03T15:43:57;10.10;99.90
10296;DHT22;5193;51.032;6.356;2023-02-03T15:46:40;10.10;99.90
10296;DHT22;5193;51.032;6.356;2023-02-03T15:49:13;10.10;99.90
10296;DHT22;5193;51.032;6.356;2023-02-03T15:51:53;10.10;99.90
10296;DHT22;5193;51.032;6.356;2023-02-03T15:54:30;10.00;99.90
10296;DHT22;5193;51.032;6.356;2023-02-03T15:57:00;10.00;99.90
10296;DHT22;5193;51.032;6.356;2023-02-03T15:59:34;10.00;99.90
10296;DHT22;5193;51.032;6.356;2023-02-03T16:04:49;9.90;99.90
10296;DHT22;5193;51.032;6.356;2023-02-03T16:07:24;9.90;99.90
10296;DHT22;5193;51.032;6.356;2023-02-03T16:09:55;9.90;99.90
10296;DHT22;5193;51.032;6.356;2023-02-03T16:12:24;9.90;99.90
10296;DHT22;5193;51.032;6.356;2023-02-03T16:14:50;9.90;99.90
10296;DHT22;5193;51.032;6.356;2023-02-03T16:17:30;9.80;99.90
10296;DHT22;5193;51.032;6.356;2023-02-03T16:22:43;9.80;99.90
10296;DHT22;5193;51.032;6.356;2023-02-03T16:31:13;9.70;99.90
10296;DHT22;5193;51.032;6.356;2023-02-03T16:34:00;9.70;99.90
10296;DHT22;5193;51.032;6.356;2023-02-03T16:36:45;9.60;99.90
10296;DHT22;5193;51.032;6.356;2023-02-03T16:39:29;9.60;99.90
10296;DHT22;5193;51.032;6.356;2023-02-03T16:42:22;9.60;99.90
10296;DHT22;5193;51.032;6.356;2023-02-03T16:45:13;9.60;99.90
10296;DHT22;5193;51.032;6.356;2023-02-03T16:47:58;9.50;99.90
10296;DHT22;5193;51.032;6.356;2023-02-03T16:50:57;9.50;99.90
10296;DHT22;5193;51.032;6.356;2023-02-03T16:56:50;9.30;99.90
10296;DHT22;5193;51.032;6.356;2023-02-03T16:59:16;9.30;99.90
10296;DHT22;5193;51.032;6.356;2023-02-03T17:01:42;9.30;99.90
10296;DHT22;5193;51.032;6.356;2023-02-03T17:04:08;9.20;99.90
10296;DHT22;5193;51.032;6.356;2023-02-03T17:06:37;9.20;99.90
10296;DHT22;5193;51.032;6.356;2023-02-03T17:09:02;9.10;99.90
10296;DHT22;5193;51.032;6.356;2023-02-03T17:11:28;9.20;99.90
10296;DHT22;5193;51.032;6.356;2023-02-03T17:13:53;9.10;99.90
10296;DHT22;5193;51.032;6.356;2023-02-03T17:16:22;9.10;99.90
10296;DHT22;5193;51.032;6.356;2023-02-03T17:18:49;9.10;99.90
10296;DHT22;5193;51.032;6.356;2023-02-03T17:21:22;9.10;99.90
10296;DHT22;5193;51.032;6.356;2023-02-03T17:23:48;9.10;99.90
10296;DHT22;5193;51.032;6.356;2023-02-03T17:26:14;9.10;99.90
10296;DHT22;5193;51.032;6.356;2023-02-03T17:28:40;9.10;99.90
10296;DHT22;5193;51.032;6.356;2023-02-03T17:31:13;9.10;99.90
10296;DHT22;5193;51.032;6.356;2023-02-03T17:33:39;9.80;99.90
10296;DHT22;5193;51.032;6.356;2023-02-03T17:36:08;9.10;99.90
10296;DHT22;5193;51.032;6.356;2023-02-03T17:38:49;9.10;99.90
10296;DHT22;5193;51.032;6.356;2023-02-03T17:41:18;9.10;99.90
10296;DHT22;5193;51.032;6.356;2023-02-03T17:43:45;9.10;99.90
10296;DHT22;5193;51.032;6.356;2023-02-03T17:46:13;9.10;99.90
10296;DHT22;5193;51.032;6.356;2023-02-03T17:48:39;9.10;99.90
10296;DHT22;5193;51.032;6.356;2023-02-03T17:51:16;9.10;99.90
10296;DHT22;5193;51.032;6.356;2023-02-03T17:53:43;9.10;99.90
10296;DHT22;5193;51.032;6.356;2023-02-03T17:56:20;9.10;99.90
10296;DHT22;5193;51.032;6.356;2023-02-03T17:58:46;9.00;99.90
10296;DHT22;5193;51.032;6.356;2023-02-03T18:01:18;9.10;99.90
10296;DHT22;5193;51.032;6.356;2023-02-03T18:06:12;9.00;99.90
10296;DHT22;5193;51.032;6.356;2023-02-03T18:08:39;9.00;99.90
10296;DHT22;5193;51.032;6.356;2023-02-03T18:11:05;9.00;99.90
10296;DHT22;5193;51.032;6.356;2023-02-03T18:13:31;9.00;99.90
10296;DHT22;5193;51.032;6.356;2023-02-03T18:16:01;8.90;99.90
10296;DHT22;5193;51.032;6.356;2023-02-03T18:18:30;8.90;99.90
10296;DHT22;5193;51.032;6.356;2023-02-03T18:21:03;8.80;99.90
10296;DHT22;5193;51.032;6.356;2023-02-03T18:23:30;8.80;99.90
10296;DHT22;5193;51.032;6.356;2023-02-03T18:25:56;8.80;99.90
10296;DHT22;5193;51.032;6.356;2023-02-03T18:28:22;8.80;99.90
10296;DHT22;5193;51.032;6.356;2023-02-03T18:30:48;8.80;99.90
10296;DHT22;5193;51.032;6.356;2023-02-03T18:33:15;8.80;99.90
10296;DHT22;5193;51.032;6.356;2023-02-03T18:35:40;8.80;99.90
10296;DHT22;5193;51.032;6.356;2023-02-03T18:38:06;8.80;99.90
10296;DHT22;5193;51.032;6.356;2023-02-03T18:40:33;8.80;99.90
10296;DHT22;5193;51.032;6.356;2023-02-03T18:43:01;8.80;99.90
10296;DHT22;5193;51.032;6.356;2023-02-03T18:45:27;8.80;99.90
10296;DHT22;5193;51.032;6.356;2023-02-03T18:47:53;8.80;99.90